Time;durP1;ratioP1;P1;durP2;ratioP2;P2;SDS_P1;SDS_P2;PMS_P1;PMS_P2;Temp;Humidity;BMP_temperature;BMP_pressure;BME280_temperature;BME280_humidity;BME280_pressure;Samples;Min_cycle;Max_cycle;Signal;HPM_P1;HPM_P2
2022/01/29 00:01:33;;;;;;;5.93;2.13;;;;;;;;;;5040619;28;20069;-83
2022/01/29 00:03:59;;;;;;;8.50;2.42;;;;;;;;;;5048199;28;20081;-83
2022/01/29 00:06:28;;;;;;;5.88;1.83;;;;;;;;;;5053944;28;20530;-83
2022/01/29 00:08:56;;;;;;;6.50;2.95;;;;;;;;;;5028418;28;20025;-83
2022/01/29 00:11:27;;;;;;;7.38;2.90;;;;;;;;;;5038289;28;20092;-84
2022/01/29 00:13:54;;;;;;;5.97;2.38;;;;;;;;;;5063043;28;20032;-83
2022/01/29 00:16:20;;;;;;;8.13;2.33;;;;;;;;;;5082986;28;20025;-81
2022/01/29 00:18:46;;;;;;;5.80;2.13;;;;;;;;;;5061621;28;20049;-82
2022/01/29 00:21:12;;;;;;;8.63;2.28;;;;;;;;;;5061493;28;20056;-82
2022/01/29 00:23:39;;;;;;;7.72;2.25;;;;;;;;;;5031096;28;20092;-83
2022/01/29 00:26:06;;;;;;;10.48;2.20;;;;;;;;;;5047601;28;20029;-82
2022/01/29 00:28:34;;;;;;;5.88;1.65;;;;;;;;;;5048278;28;20056;-85
2022/01/29 00:31:03;;;;;;;8.95;2.50;;;;;;;;;;5048242;28;20459;-84
2022/01/29 00:33:29;;;;;;;5.78;1.70;;;;;;;;;;5047980;28;20058;-81
2022/01/29 00:35:55;;;;;;;7.93;2.58;;;;;;;;;;5062632;28;20044;-82
2022/01/29 00:38:21;;;;;;;7.65;2.30;;;;;;;;;;5042970;28;20100;-83
2022/01/29 00:40:47;;;;;;;6.80;2.33;;;;;;;;;;5039604;28;20022;-84
2022/01/29 00:43:14;;;;;;;7.85;1.98;;;;;;;;;;5027976;28;20028;-83
2022/01/29 00:45:41;;;;;;;7.00;1.95;;;;;;;;;;5030765;28;20033;-82
2022/01/29 00:48:08;;;;;;;5.03;2.20;;;;;;;;;;5063980;28;20025;-81
2022/01/29 00:50:34;;;;;;;8.50;2.08;;;;;;;;;;5065029;28;20025;-82
2022/01/29 00:53:00;;;;;;;8.35;2.80;;;;;;;;;;5047267;28;20479;-82
2022/01/29 00:55:26;;;;;;;7.70;1.83;;;;;;;;;;5061003;28;20033;-82
2022/01/29 00:57:53;;;;;;;6.03;1.77;;;;;;;;;;5065443;28;20039;-82
2022/01/29 01:00:19;;;;;;;9.45;2.40;;;;;;;;;;5064807;28;20021;-81
2022/01/29 01:02:45;;;;;;;7.00;2.03;;;;;;;;;;5023278;28;20076;-82
2022/01/29 01:05:11;;;;;;;8.82;2.10;;;;;;;;;;5018756;28;20032;-82
2022/01/29 01:07:38;;;;;;;6.65;1.98;;;;;;;;;;5019128;28;20029;-83
2022/01/29 01:10:08;;;;;;;7.55;2.28;;;;;;;;;;5040808;28;20064;-83
2022/01/29 01:12:35;;;;;;;8.20;2.10;;;;;;;;;;5025250;28;20022;-83
2022/01/29 01:15:01;;;;;;;8.52;1.90;;;;;;;;;;5040008;28;20036;-82
2022/01/29 01:17:28;;;;;;;7.88;2.22;;;;;;;;;;5043508;28;20028;-80
2022/01/29 01:19:54;;;;;;;5.38;2.00;;;;;;;;;;5016407;28;20030;-81
2022/01/29 01:22:21;;;;;;;6.28;1.83;;;;;;;;;;5008317;28;20026;-83
2022/01/29 01:24:47;;;;;;;6.68;1.63;;;;;;;;;;5037745;28;20045;-83
2022/01/29 01:27:14;;;;;;;6.32;1.98;;;;;;;;;;5027545;28;20075;-82
2022/01/29 01:29:40;;;;;;;6.55;2.40;;;;;;;;;;5045098;28;20026;-83
2022/01/29 01:32:11;;;;;;;5.90;1.88;;;;;;;;;;5045514;28;20029;-82
2022/01/29 01:34:40;;;;;;;7.18;2.08;;;;;;;;;;5018930;28;20112;-84
2022/01/29 01:37:10;;;;;;;6.85;2.08;;;;;;;;;;5024447;28;20115;-82
2022/01/29 01:39:39;;;;;;;6.85;2.25;;;;;;;;;;5029608;28;20376;-82
2022/01/29 01:42:07;;;;;;;9.23;2.00;;;;;;;;;;5049406;28;20006;-82
2022/01/29 01:44:45;;;;;;;8.65;2.15;;;;;;;;;;5048829;28;20021;-83
2022/01/29 01:47:12;;;;;;;8.93;1.80;;;;;;;;;;5022231;28;20041;-81
2022/01/29 01:49:38;;;;;;;5.40;2.20;;;;;;;;;;5028106;28;20033;-83
2022/01/29 01:52:06;;;;;;;5.07;1.77;;;;;;;;;;5043167;28;20025;-83
2022/01/29 01:54:33;;;;;;;10.20;2.47;;;;;;;;;;5041063;28;20113;-81
2022/01/29 01:57:00;;;;;;;8.48;2.08;;;;;;;;;;5044953;28;20092;-84
2022/01/29 01:59:27;;;;;;;4.45;1.80;;;;;;;;;;5030895;28;20079;-83
2022/01/29 02:01:53;;;;;;;6.47;2.10;;;;;;;;;;5058749;28;20065;-83
2022/01/29 02:04:20;;;;;;;8.18;2.08;;;;;;;;;;5038966;28;20051;-82
2022/01/29 02:06:47;;;;;;;7.10;1.80;;;;;;;;;;5054454;28;20039;-83
2022/01/29 02:09:15;;;;;;;5.30;1.85;;;;;;;;;;5049550;28;20036;-83
2022/01/29 02:11:50;;;;;;;5.57;1.70;;;;;;;;;;5048954;28;20018;-83
2022/01/29 02:14:19;;;;;;;5.80;1.67;;;;;;;;;;5031901;28;20021;-83
2022/01/29 02:16:46;;;;;;;6.45;2.00;;;;;;;;;;5038890;28;20013;-83
2022/01/29 02:19:12;;;;;;;5.93;1.60;;;;;;;;;;5051695;28;20088;-81
2022/01/29 02:21:38;;;;;;;7.65;1.77;;;;;;;;;;5054194;28;20020;-83
2022/01/29 02:24:05;;;;;;;8.18;2.20;;;;;;;;;;5051022;28;20049;-81
2022/01/29 02:26:31;;;;;;;6.95;1.75;;;;;;;;;;5036799;28;20025;-84
2022/01/29 02:28:58;;;;;;;7.25;1.75;;;;;;;;;;5033683;28;20107;-82
2022/01/29 02:31:35;;;;;;;6.15;1.77;;;;;;;;;;5050637;28;20032;-81
2022/01/29 02:34:03;;;;;;;10.38;2.92;;;;;;;;;;5051898;28;20021;-82
2022/01/29 02:36:30;;;;;;;5.53;1.80;;;;;;;;;;5054942;28;20036;-82
2022/01/29 02:38:56;;;;;;;7.13;1.80;;;;;;;;;;5073081;28;20062;-83
2022/01/29 02:41:24;;;;;;;12.52;2.28;;;;;;;;;;5053123;28;20029;-82
2022/01/29 02:43:51;;;;;;;7.80;1.88;;;;;;;;;;5051848;28;20032;-82
2022/01/29 02:48:54;;;;;;;7.90;1.63;;;;;;;;;;5068186;28;20414;-81
2022/01/29 02:51:21;;;;;;;5.82;1.63;;;;;;;;;;5068075;28;20025;-83
2022/01/29 02:53:47;;;;;;;7.80;2.00;;;;;;;;;;5041129;28;20021;-83
2022/01/29 02:56:14;;;;;;;10.13;2.03;;;;;;;;;;5031366;28;20029;-83
2022/01/29 02:58:41;;;;;;;6.40;1.80;;;;;;;;;;5050928;28;20036;-83
2022/01/29 03:01:07;;;;;;;6.38;2.03;;;;;;;;;;5049128;28;20036;-83
2022/01/29 03:03:34;;;;;;;6.63;2.08;;;;;;;;;;5050122;28;20044;-83
2022/01/29 03:06:02;;;;;;;6.95;2.15;;;;;;;;;;5068485;28;20108;-83
2022/01/29 03:08:28;;;;;;;7.03;1.75;;;;;;;;;;5032241;28;20021;-83
2022/01/29 03:10:54;;;;;;;5.57;1.60;;;;;;;;;;5065186;28;20040;-83
2022/01/29 03:13:21;;;;;;;7.75;1.77;;;;;;;;;;5050851;28;20089;-82
2022/01/29 03:15:47;;;;;;;5.22;1.60;;;;;;;;;;5049080;28;20032;-82
2022/01/29 03:18:14;;;;;;;5.43;2.38;;;;;;;;;;5030816;28;20034;-82
2022/01/29 03:20:50;;;;;;;8.77;1.80;;;;;;;;;;5029644;28;20025;-84
2022/01/29 03:23:17;;;;;;;8.23;2.13;;;;;;;;;;5047812;28;20029;-82
2022/01/29 03:25:45;;;;;;;5.22;1.70;;;;;;;;;;5043541;28;20079;-83
2022/01/29 03:28:11;;;;;;;5.43;2.05;;;;;;;;;;5036396;28;20032;-83
2022/01/29 03:30:37;;;;;;;6.13;2.17;;;;;;;;;;5054599;28;20036;-83
2022/01/29 03:33:06;;;;;;;8.48;1.92;;;;;;;;;;5062783;28;20044;-83
2022/01/29 03:35:32;;;;;;;6.97;2.08;;;;;;;;;;5050360;28;20033;-82
2022/01/29 03:37:59;;;;;;;7.28;2.25;;;;;;;;;;5036191;28;20028;-83
2022/01/29 03:40:25;;;;;;;14.15;3.17;;;;;;;;;;5059743;28;20029;-83
2022/01/29 03:43:07;;;;;;;8.68;2.63;;;;;;;;;;5050251;28;20029;-83
2022/01/29 03:45:33;;;;;;;5.32;2.28;;;;;;;;;;5069175;28;20017;-83
2022/01/29 03:47:59;;;;;;;6.13;2.50;;;;;;;;;;5037923;28;20029;-83
2022/01/29 03:50:27;;;;;;;8.18;2.88;;;;;;;;;;5036433;28;20127;-83
2022/01/29 03:52:53;;;;;;;9.68;3.10;;;;;;;;;;5052150;28;20388;-82
2022/01/29 03:55:19;;;;;;;7.38;2.72;;;;;;;;;;5051538;28;20029;-83
2022/01/29 03:57:45;;;;;;;10.57;3.92;;;;;;;;;;5050331;28;20033;-82
2022/01/29 04:00:12;;;;;;;11.70;3.10;;;;;;;;;;5068331;28;20029;-82
2022/01/29 04:02:38;;;;;;;8.98;2.95;;;;;;;;;;5049735;28;20036;-83
2022/01/29 04:05:07;;;;;;;10.52;4.05;;;;;;;;;;5049063;28;20075;-83
2022/01/29 04:07:41;;;;;;;8.18;2.67;;;;;;;;;;5059551;28;20045;-82
2022/01/29 04:10:07;;;;;;;7.57;3.33;;;;;;;;;;5031340;28;20026;-83
2022/01/29 04:12:40;;;;;;;9.98;3.30;;;;;;;;;;5029835;28;20032;-83
2022/01/29 04:15:07;;;;;;;;;;;;;;;;;;5029815;28;20028;-83
2022/01/29 04:17:33;;;;;;;7.57;3.40;;;;;;;;;;5041684;28;19912;-82
2022/01/29 04:19:59;;;;;;;6.45;3.10;;;;;;;;;;5057208;28;20036;-82
2022/01/29 04:22:26;;;;;;;10.48;3.40;;;;;;;;;;5048664;28;20435;-84
2022/01/29 04:24:52;;;;;;;7.13;3.00;;;;;;;;;;5066615;28;20033;-83
2022/01/29 04:27:23;;;;;;;6.25;3.03;;;;;;;;;;5068064;28;20028;-83
2022/01/29 04:29:59;;;;;;;7.53;3.35;;;;;;;;;;5049589;28;20386;-83
2022/01/29 04:33:23;;;;;;;9.32;3.35;;;;;;;;;;5049548;28;20097;-83
2022/01/29 04:35:14;;;;;;;9.13;3.50;;;;;;;;;;5051588;28;20487;-84
2022/01/29 04:37:40;;;;;;;7.95;3.17;;;;;;;;;;5044500;28;20060;-84
2022/01/29 04:40:07;;;;;;;11.63;4.00;;;;;;;;;;5050278;28;20025;-84
2022/01/29 04:42:33;;;;;;;8.13;3.30;;;;;;;;;;5067230;28;20028;-82
2022/01/29 04:45:00;;;;;;;9.05;3.60;;;;;;;;;;5048784;28;20025;-83
2022/01/29 04:47:26;;;;;;;9.50;3.55;;;;;;;;;;5049832;28;20029;-82
2022/01/29 04:49:52;;;;;;;6.30;3.13;;;;;;;;;;5047189;28;20044;-83
2022/01/29 04:52:18;;;;;;;8.35;3.60;;;;;;;;;;5051847;28;20025;-82
2022/01/29 04:54:45;;;;;;;9.38;3.92;;;;;;;;;;5067885;28;20025;-83
2022/01/29 04:57:11;;;;;;;11.73;4.43;;;;;;;;;;5050230;28;20029;-82
2022/01/29 04:59:37;;;;;;;7.53;3.97;;;;;;;;;;5050992;28;20040;-83
2022/01/29 05:02:04;;;;;;;10.43;4.47;;;;;;;;;;5066274;28;20095;-80
2022/01/29 05:04:31;;;;;;;7.63;3.60;;;;;;;;;;5046956;28;20048;-82
2022/01/29 05:07:01;;;;;;;7.68;3.10;;;;;;;;;;5036934;28;20028;-82
2022/01/29 05:09:27;;;;;;;7.25;3.67;;;;;;;;;;5049391;28;20025;-84
2022/01/29 05:11:55;;;;;;;8.65;4.10;;;;;;;;;;5049465;28;20021;-83
2022/01/29 05:14:58;;;;;;;9.00;3.90;;;;;;;;;;5049895;28;20025;-84
2022/01/29 05:27:56;;;;;;;8.48;4.20;;;;;;;;;;5062778;28;20071;-82
2022/01/29 05:30:22;;;;;;;11.20;4.18;;;;;;;;;;5046788;28;20090;-84
2022/01/29 05:32:51;;;;;;;8.13;3.75;;;;;;;;;;5049401;28;20021;-83
2022/01/29 05:35:17;;;;;;;8.43;3.60;;;;;;;;;;5067124;28;20036;-83
2022/01/29 05:37:49;;;;;;;8.20;3.90;;;;;;;;;;5036693;28;20033;-82
2022/01/29 05:40:16;;;;;;;9.05;3.58;;;;;;;;;;5036369;28;20025;-83
2022/01/29 05:42:42;;;;;;;11.10;3.75;;;;;;;;;;5049719;28;20124;-82
2022/01/29 05:45:09;;;;;;;10.82;4.22;;;;;;;;;;5049207;28;20025;-82
2022/01/29 05:47:35;;;;;;;13.65;4.45;;;;;;;;;;5066542;28;20029;-82
2022/01/29 05:50:02;;;;;;;9.00;4.13;;;;;;;;;;5050977;28;20016;-82
2022/01/29 05:52:28;;;;;;;10.13;3.58;;;;;;;;;;5052513;28;20036;-82
2022/01/29 05:54:55;;;;;;;8.68;3.38;;;;;;;;;;5049565;28;20029;-83
2022/01/29 05:57:21;;;;;;;9.00;3.95;;;;;;;;;;5047013;28;20037;-83
2022/01/29 06:00:22;;;;;;;7.22;3.83;;;;;;;;;;5029750;28;20026;-82
2022/01/29 06:02:57;;;;;;;7.45;3.85;;;;;;;;;;5032467;28;20045;-84
2022/01/29 06:05:23;;;;;;;11.40;4.78;;;;;;;;;;5048085;28;20025;-82
2022/01/29 06:07:50;;;;;;;11.30;4.22;;;;;;;;;;5033479;28;20033;-82
2022/01/29 06:10:17;;;;;;;7.45;3.80;;;;;;;;;;5045280;28;20079;-81
2022/01/29 06:12:43;;;;;;;12.43;4.97;;;;;;;;;;5027506;28;20071;-82
2022/01/29 06:15:11;;;;;;;10.98;4.20;;;;;;;;;;5016807;28;20022;-82
2022/01/29 06:17:38;;;;;;;13.27;4.40;;;;;;;;;;5007607;28;20030;-83
2022/01/29 06:20:05;;;;;;;12.23;5.32;;;;;;;;;;5015927;28;20045;-82
2022/01/29 06:22:32;;;;;;;8.95;4.80;;;;;;;;;;5028866;28;20419;-82
2022/01/29 06:24:58;;;;;;;9.23;5.43;;;;;;;;;;5028771;28;20056;-83
2022/01/29 06:27:27;;;;;;;21.55;10.40;;;;;;;;;;5019159;28;20120;-82
2022/01/29 06:29:53;;;;;;;21.08;10.05;;;;;;;;;;5012562;28;20028;-83
2022/01/29 06:32:19;;;;;;;16.20;8.35;;;;;;;;;;5043329;28;20038;-82
2022/01/29 06:34:45;;;;;;;21.88;9.77;;;;;;;;;;5040551;28;20029;-82
2022/01/29 06:37:11;;;;;;;17.20;8.25;;;;;;;;;;5045036;28;20025;-83
2022/01/29 06:39:38;;;;;;;17.45;8.77;;;;;;;;;;5042264;28;20092;-83
2022/01/29 06:42:04;;;;;;;16.75;8.75;;;;;;;;;;5025969;28;20029;-83
2022/01/29 06:44:30;;;;;;;18.00;7.95;;;;;;;;;;5009783;28;20026;-83
2022/01/29 06:46:56;;;;;;;14.82;8.18;;;;;;;;;;5041097;28;20025;-83
2022/01/29 06:49:22;;;;;;;15.65;8.73;;;;;;;;;;5037587;28;20030;-82
2022/01/29 06:51:49;;;;;;;14.25;8.40;;;;;;;;;;5010759;28;20022;-83
2022/01/29 06:54:15;;;;;;;13.10;7.70;;;;;;;;;;5028001;28;20029;-82
2022/01/29 06:56:41;;;;;;;16.05;7.78;;;;;;;;;;5009910;28;20030;-82
2022/01/29 06:59:07;;;;;;;13.20;7.28;;;;;;;;;;5042746;28;20025;-83
2022/01/29 07:01:33;;;;;;;16.77;9.18;;;;;;;;;;5052678;28;20044;-81
2022/01/29 07:03:59;;;;;;;17.85;8.70;;;;;;;;;;5048434;28;20036;-82
2022/01/29 07:06:26;;;;;;;19.17;9.52;;;;;;;;;;5038626;28;20526;-82
2022/01/29 07:08:52;;;;;;;19.02;9.98;;;;;;;;;;5038301;28;20063;-82
2022/01/29 07:11:21;;;;;;;13.70;7.72;;;;;;;;;;5055383;28;20081;-82
2022/01/29 07:13:47;;;;;;;16.48;9.23;;;;;;;;;;5066275;28;20050;-84
2022/01/29 07:16:13;;;;;;;16.10;7.82;;;;;;;;;;5066500;28;20051;-81
2022/01/29 07:18:40;;;;;;;18.80;8.65;;;;;;;;;;5065410;28;20029;-80
2022/01/29 07:21:06;;;;;;;13.68;7.90;;;;;;;;;;5064990;28;20025;-82
2022/01/29 07:23:32;;;;;;;16.02;8.93;;;;;;;;;;5043300;28;20029;-83
2022/01/29 07:25:58;;;;;;;15.52;7.90;;;;;;;;;;5061651;28;20021;-83
2022/01/29 07:28:24;;;;;;;12.68;7.80;;;;;;;;;;5042505;28;20013;-83
2022/01/29 07:30:51;;;;;;;14.27;8.27;;;;;;;;;;5061291;28;20041;-82
2022/01/29 07:33:18;;;;;;;12.82;7.20;;;;;;;;;;5064119;28;20029;-84
2022/01/29 07:35:44;;;;;;;14.82;7.40;;;;;;;;;;5043992;28;20530;-81
2022/01/29 07:38:12;;;;;;;14.43;8.57;;;;;;;;;;5042803;28;20033;-83
2022/01/29 07:40:38;;;;;;;15.23;7.78;;;;;;;;;;5066057;28;20021;-82
2022/01/29 07:43:04;;;;;;;16.65;8.15;;;;;;;;;;5065941;28;20112;-83
2022/01/29 07:45:30;;;;;;;13.75;7.72;;;;;;;;;;5047602;28;20395;-83
2022/01/29 07:47:57;;;;;;;14.88;7.95;;;;;;;;;;5030095;28;20033;-83
2022/01/29 07:50:23;;;;;;;12.85;7.25;;;;;;;;;;5044487;28;20029;-82
2022/01/29 07:52:50;;;;;;;13.65;7.97;;;;;;;;;;5046733;28;20025;-83
2022/01/29 07:55:16;;;;;;;12.98;7.18;;;;;;;;;;5057438;28;20053;-83
2022/01/29 07:57:42;;;;;;;13.20;7.85;;;;;;;;;;5047770;28;20159;-83
2022/01/29 08:00:09;;;;;;;14.57;8.73;;;;;;;;;;5041500;28;20021;-82
2022/01/29 08:02:35;;;;;;;12.63;7.80;;;;;;;;;;5046478;28;20049;-80
2022/01/29 08:05:01;;;;;;;13.27;7.80;;;;;;;;;;5061812;28;20022;-82
2022/01/29 08:07:27;;;;;;;11.77;7.53;;;;;;;;;;5031261;28;20413;-82
2022/01/29 08:09:53;;;;;;;11.77;7.05;;;;;;;;;;5030678;28;20040;-82
2022/01/29 08:12:22;;;;;;;11.55;7.15;;;;;;;;;;5045230;28;20029;-82
2022/01/29 08:14:48;;;;;;;12.63;7.80;;;;;;;;;;5029832;28;20032;-81
2022/01/29 08:17:14;;;;;;;13.98;8.27;;;;;;;;;;5063743;28;20030;-82
2022/01/29 08:19:40;;;;;;;12.73;8.15;;;;;;;;;;5062959;28;20171;-80
2022/01/29 08:22:07;;;;;;;12.45;7.20;;;;;;;;;;5036135;28;20025;-82
2022/01/29 08:24:33;;;;;;;17.20;8.25;;;;;;;;;;5056605;28;20025;-81
2022/01/29 08:26:59;;;;;;;12.07;7.68;;;;;;;;;;5034745;28;20032;-82
2022/01/29 08:29:25;;;;;;;11.88;7.20;;;;;;;;;;5054208;28;20029;-82
2022/01/29 08:31:51;;;;;;;13.07;7.78;;;;;;;;;;5033700;28;20029;-83
2022/01/29 08:34:17;;;;;;;11.23;7.03;;;;;;;;;;5030767;28;20041;-83
2022/01/29 08:36:43;;;;;;;12.25;6.85;;;;;;;;;;5043636;28;20075;-82
2022/01/29 08:39:09;;;;;;;12.48;7.68;;;;;;;;;;5024770;28;20471;-82
2022/01/29 08:41:35;;;;;;;10.40;6.35;;;;;;;;;;5040575;28;20029;-84
2022/01/29 08:44:02;;;;;;;15.13;7.95;;;;;;;;;;5044806;28;20013;-80
2022/01/29 08:46:28;;;;;;;10.98;7.20;;;;;;;;;;5062237;28;20029;-81
2022/01/29 08:48:54;;;;;;;13.63;7.68;;;;;;;;;;5063266;28;20021;-83
2022/01/29 08:51:20;;;;;;;12.85;8.25;;;;;;;;;;5065520;28;20021;-82
2022/01/29 08:53:46;;;;;;;13.55;7.85;;;;;;;;;;5067756;28;20032;-83
2022/01/29 08:56:15;;;;;;;13.82;7.00;;;;;;;;;;5066737;28;20060;-82
2022/01/29 08:58:41;;;;;;;10.82;6.30;;;;;;;;;;5041424;28;20022;-82
2022/01/29 09:01:08;;;;;;;10.05;6.43;;;;;;;;;;5040612;28;20109;-82
2022/01/29 09:03:36;;;;;;;12.82;7.00;;;;;;;;;;5033228;28;20048;-82
2022/01/29 09:06:06;;;;;;;9.73;6.00;;;;;;;;;;5025354;28;20033;-84
2022/01/29 09:08:32;;;;;;;9.70;6.20;;;;;;;;;;5026807;28;20053;-85
2022/01/29 09:10:59;;;;;;;11.45;6.30;;;;;;;;;;5027546;28;20018;-84
2022/01/29 09:13:26;;;;;;;11.00;6.38;;;;;;;;;;5027925;28;20492;-86
2022/01/29 09:15:54;;;;;;;9.65;5.55;;;;;;;;;;5027131;28;20207;-85
2022/01/29 09:18:20;;;;;;;9.20;5.43;;;;;;;;;;5026962;28;20088;-82
2022/01/29 09:20:46;;;;;;;9.40;6.13;;;;;;;;;;5012629;28;20022;-83
2022/01/29 09:23:13;;;;;;;8.48;5.13;;;;;;;;;;5032812;28;20030;-83
2022/01/29 09:25:40;;;;;;;10.20;5.20;;;;;;;;;;5029962;28;20112;-82
2022/01/29 09:28:06;;;;;;;10.15;5.50;;;;;;;;;;5006145;28;20476;-83
2022/01/29 09:30:33;;;;;;;8.43;4.65;;;;;;;;;;5010709;28;20381;-83
2022/01/29 09:33:00;;;;;;;9.60;5.28;;;;;;;;;;5015677;28;20278;-81
2022/01/29 09:35:27;;;;;;;11.57;5.30;;;;;;;;;;5040174;28;20037;-82
2022/01/29 09:37:56;;;;;;;10.27;4.95;;;;;;;;;;5043679;28;20056;-82
2022/01/29 09:40:23;;;;;;;9.52;4.95;;;;;;;;;;5025672;28;20085;-83
2022/01/29 09:42:51;;;;;;;9.85;4.78;;;;;;;;;;5028629;28;20046;-83
2022/01/29 09:45:19;;;;;;;8.05;4.72;;;;;;;;;;5023244;28;20025;-83
2022/01/29 09:47:47;;;;;;;7.72;4.45;;;;;;;;;;5027233;28;20021;-84
2022/01/29 09:50:14;;;;;;;8.70;4.50;;;;;;;;;;5040908;28;20056;-83
2022/01/29 09:52:40;;;;;;;8.57;4.57;;;;;;;;;;5026381;28;20108;-83
2022/01/29 09:55:07;;;;;;;8.55;4.45;;;;;;;;;;5023419;28;20032;-84
2022/01/29 09:57:33;;;;;;;9.52;4.90;;;;;;;;;;5023929;28;20029;-82
2022/01/29 10:00:00;;;;;;;8.93;4.53;;;;;;;;;;5028399;28;20033;-83
2022/01/29 10:02:26;;;;;;;6.18;3.53;;;;;;;;;;5060922;28;20114;-84
2022/01/29 10:04:52;;;;;;;10.88;5.10;;;;;;;;;;5048968;28;20025;-83
2022/01/29 10:07:26;;;;;;;7.15;4.68;;;;;;;;;;5066525;28;20024;-83
2022/01/29 10:09:52;;;;;;;13.07;4.40;;;;;;;;;;5049725;28;20044;-82
2022/01/29 10:12:23;;;;;;;7.13;3.83;;;;;;;;;;5051029;28;20030;-83
2022/01/29 10:14:57;;;;;;;9.05;4.50;;;;;;;;;;5028207;28;20430;-82
2022/01/29 10:17:39;;;;;;;7.13;3.92;;;;;;;;;;5028102;28;20128;-82
2022/01/29 10:20:11;;;;;;;10.25;4.10;;;;;;;;;;5028822;28;20032;-83
2022/01/29 10:22:38;;;;;;;6.22;3.85;;;;;;;;;;5064828;28;20158;-83
2022/01/29 10:25:11;;;;;;;7.55;3.78;;;;;;;;;;5048919;28;20029;-83
2022/01/29 10:27:38;;;;;;;8.00;4.05;;;;;;;;;;5028992;28;20032;-83
2022/01/29 10:30:04;;;;;;;9.50;3.78;;;;;;;;;;5046503;28;20017;-83
2022/01/29 10:32:33;;;;;;;7.35;3.70;;;;;;;;;;5047205;28;20090;-84
2022/01/29 10:34:59;;;;;;;6.53;3.53;;;;;;;;;;5028716;28;20030;-84
2022/01/29 10:37:26;;;;;;;8.70;3.92;;;;;;;;;;5027177;28;20041;-83
2022/01/29 10:39:53;;;;;;;7.50;4.07;;;;;;;;;;5027239;28;20043;-83
2022/01/29 10:42:23;;;;;;;8.32;4.43;;;;;;;;;;5047134;28;20039;-82
2022/01/29 10:44:49;;;;;;;6.80;3.78;;;;;;;;;;5065240;28;20028;-84
2022/01/29 10:47:16;;;;;;;8.60;4.35;;;;;;;;;;5044414;28;20021;-85
2022/01/29 10:49:50;;;;;;;7.53;3.90;;;;;;;;;;5046861;28;20124;-83
2022/01/29 10:52:17;;;;;;;7.00;3.85;;;;;;;;;;5065684;28;20024;-83
2022/01/29 10:54:49;;;;;;;7.13;3.67;;;;;;;;;;5065663;28;20037;-81
2022/01/29 10:57:16;;;;;;;6.93;4.27;;;;;;;;;;5059631;28;20020;-83
2022/01/29 10:59:53;;;;;;;8.32;4.38;;;;;;;;;;5055038;28;20029;-85
2022/01/29 11:02:20;;;;;;;7.57;4.63;;;;;;;;;;5034017;28;20107;-83
2022/01/29 11:04:48;;;;;;;7.80;4.50;;;;;;;;;;5044047;28;20021;-82
2022/01/29 11:07:26;;;;;;;8.90;4.88;;;;;;;;;;5050686;28;20056;-83
2022/01/29 11:10:01;;;;;;;6.97;4.28;;;;;;;;;;5055292;28;20033;-81
2022/01/29 11:12:30;;;;;;;8.07;4.47;;;;;;;;;;5041741;28;20029;-82
2022/01/29 11:15:01;;;;;;;6.60;3.83;;;;;;;;;;5059789;28;20024;-82
2022/01/29 11:17:29;;;;;;;9.90;5.13;;;;;;;;;;5067840;28;20398;-82
2022/01/29 11:19:55;;;;;;;9.77;4.75;;;;;;;;;;5065245;28;20514;-84
2022/01/29 11:22:23;;;;;;;9.55;6.20;;;;;;;;;;5049135;28;20025;-82
2022/01/29 11:24:55;;;;;;;11.45;6.20;;;;;;;;;;5055165;28;20025;-84
2022/01/29 11:27:28;;;;;;;9.73;4.78;;;;;;;;;;5052188;28;20029;-83
2022/01/29 11:30:00;;;;;;;7.75;4.30;;;;;;;;;;5047847;28;20535;-82
2022/01/29 11:32:28;;;;;;;8.70;4.55;;;;;;;;;;5047428;28;20511;-84
2022/01/29 11:35:05;;;;;;;8.55;4.32;;;;;;;;;;5046838;28;20029;-83
2022/01/29 11:37:38;;;;;;;6.97;3.72;;;;;;;;;;5028132;28;20057;-83
2022/01/29 11:40:12;;;;;;;13.00;4.38;;;;;;;;;;5053999;28;20033;-81
2022/01/29 11:42:38;;;;;;;7.78;4.18;;;;;;;;;;5044917;28;20582;-81
2022/01/29 11:45:23;;;;;;;6.53;4.28;;;;;;;;;;5059800;28;20384;-80
2022/01/29 11:47:49;;;;;;;6.30;3.55;;;;;;;;;;5059528;28;20441;-83
2022/01/29 11:50:25;;;;;;;8.35;3.85;;;;;;;;;;5055317;28;20052;-82
2022/01/29 11:52:56;;;;;;;10.55;4.22;;;;;;;;;;5036455;28;20029;-82
2022/01/29 11:55:43;;;;;;;6.60;3.60;;;;;;;;;;5041496;28;20030;-81
2022/01/29 11:58:20;;;;;;;6.28;3.40;;;;;;;;;;5027581;28;20030;-83
2022/01/29 12:01:06;;;;;;;6.45;3.45;;;;;;;;;;5042991;28;20029;-80
2022/01/29 12:03:38;;;;;;;8.23;3.40;;;;;;;;;;5058976;28;20037;-82
2022/01/29 12:09:06;;;;;;;6.87;3.80;;;;;;;;;;5062786;28;20029;-82
2022/01/29 12:11:33;;;;;;;6.55;3.80;;;;;;;;;;5044953;28;20033;-82
2022/01/29 12:14:13;;;;;;;6.80;3.78;;;;;;;;;;5064048;28;20362;-83
2022/01/29 12:16:47;;;;;;;6.63;3.63;;;;;;;;;;5041015;28;20049;-82
2022/01/29 12:19:32;;;;;;;9.55;4.28;;;;;;;;;;5047603;28;20040;-82
2022/01/29 12:21:58;;;;;;;8.02;4.13;;;;;;;;;;5061491;28;20044;-81
2022/01/29 12:24:24;;;;;;;8.00;4.68;;;;;;;;;;5043709;28;20026;-83
2022/01/29 12:26:54;;;;;;;10.27;5.15;;;;;;;;;;5027033;28;20045;-83
2022/01/29 12:29:22;;;;;;;6.07;3.50;;;;;;;;;;5054698;28;20040;-84
2022/01/29 12:31:52;;;;;;;7.95;3.78;;;;;;;;;;5040921;28;20480;-83
2022/01/29 12:34:21;;;;;;;7.72;3.88;;;;;;;;;;5026370;28;20028;-82
2022/01/29 12:36:47;;;;;;;7.25;3.67;;;;;;;;;;5055244;28;20029;-81
2022/01/29 12:39:22;;;;;;;7.50;3.90;;;;;;;;;;5039262;28;20076;-84
2022/01/29 12:42:05;;;;;;;7.13;3.80;;;;;;;;;;5025540;28;20021;-83
2022/01/29 12:44:32;;;;;;;7.40;3.75;;;;;;;;;;5033048;28;20115;-84
2022/01/29 12:46:58;;;;;;;8.02;4.35;;;;;;;;;;5057953;28;20193;-82
2022/01/29 12:49:24;;;;;;;9.35;4.97;;;;;;;;;;5055048;28;20017;-82
2022/01/29 12:51:52;;;;;;;7.43;3.95;;;;;;;;;;5028030;28;20026;-83
2022/01/29 12:54:19;;;;;;;8.30;4.07;;;;;;;;;;5026251;28;20120;-81
2022/01/29 12:56:46;;;;;;;8.77;4.32;;;;;;;;;;5027048;28;20467;-81
2022/01/29 12:59:13;;;;;;;7.88;4.25;;;;;;;;;;5033189;28;20025;-81
2022/01/29 13:01:40;;;;;;;7.88;4.15;;;;;;;;;;5037998;28;20045;-81
2022/01/29 13:04:19;;;;;;;7.13;4.32;;;;;;;;;;5028654;28;20041;-81
2022/01/29 13:06:46;;;;;;;6.15;3.38;;;;;;;;;;5058214;28;20031;-81
2022/01/29 13:09:12;;;;;;;7.20;3.63;;;;;;;;;;5059241;28;20483;-79
2022/01/29 13:11:40;;;;;;;7.35;4.18;;;;;;;;;;5060960;28;20483;-79
2022/01/29 13:14:19;;;;;;;7.18;4.07;;;;;;;;;;5055834;28;20087;-81
2022/01/29 13:16:46;;;;;;;6.70;3.58;;;;;;;;;;5031937;28;20052;-80
2022/01/29 13:19:12;;;;;;;7.65;4.13;;;;;;;;;;5047144;28;20028;-81
2022/01/29 13:21:39;;;;;;;7.22;3.72;;;;;;;;;;5055043;28;20033;-81
2022/01/29 13:24:24;;;;;;;7.40;3.38;;;;;;;;;;5043338;28;20032;-81
2022/01/29 13:27:10;;;;;;;5.97;2.97;;;;;;;;;;5044127;28;20063;-82
2022/01/29 13:29:58;;;;;;;6.97;2.95;;;;;;;;;;5061318;28;20032;-81
2022/01/29 13:32:33;;;;;;;5.15;2.67;;;;;;;;;;5052075;28;20076;-81
2022/01/29 13:35:18;;;;;;;6.90;3.20;;;;;;;;;;5047977;28;20064;-82
2022/01/29 13:37:44;;;;;;;6.75;3.17;;;;;;;;;;5034734;28;20059;-81
2022/01/29 13:40:17;;;;;;;6.78;2.90;;;;;;;;;;5061043;28;20032;-79
2022/01/29 13:42:57;;;;;;;7.35;3.25;;;;;;;;;;5065479;28;20029;-82
2022/01/29 13:45:23;;;;;;;7.55;3.17;;;;;;;;;;5059699;28;20021;-81
2022/01/29 13:48:07;;;;;;;8.30;3.42;;;;;;;;;;5037922;28;20021;-82
2022/01/29 13:50:37;;;;;;;5.63;2.70;;;;;;;;;;5042483;28;20096;-81
2022/01/29 13:53:11;;;;;;;7.30;3.10;;;;;;;;;;5064503;28;20029;-80
2022/01/29 13:55:39;;;;;;;5.78;3.10;;;;;;;;;;5065381;28;20034;-83
2022/01/29 13:58:10;;;;;;;7.80;3.30;;;;;;;;;;5065504;28;20036;-81
2022/01/29 14:00:56;;;;;;;6.35;3.03;;;;;;;;;;5049119;28;20059;-79
2022/01/29 14:03:41;;;;;;;6.57;3.60;;;;;;;;;;5038989;28;20088;-80
2022/01/29 14:06:32;;;;;;;7.70;3.67;;;;;;;;;;5058036;28;20021;-80
2022/01/29 14:09:07;;;;;;;7.35;3.50;;;;;;;;;;5044683;28;20051;-79
2022/01/29 14:11:53;;;;;;;6.05;3.10;;;;;;;;;;5041948;28;20391;-81
2022/01/29 14:14:19;;;;;;;5.95;3.80;;;;;;;;;;5050094;28;20060;-80
2022/01/29 14:16:45;;;;;;;7.97;3.42;;;;;;;;;;5029875;28;20048;-80
2022/01/29 14:19:18;;;;;;;5.95;2.95;;;;;;;;;;5026823;28;20026;-83
2022/01/29 14:21:44;;;;;;;7.63;3.50;;;;;;;;;;5027512;28;20056;-82
2022/01/29 14:24:11;;;;;;;7.30;3.20;;;;;;;;;;5025608;28;20033;-80
2022/01/29 14:26:37;;;;;;;7.25;3.65;;;;;;;;;;5043405;28;20025;-81
2022/01/29 14:29:03;;;;;;;6.57;3.78;;;;;;;;;;5043341;28;20033;-81
2022/01/29 14:31:30;;;;;;;6.80;3.92;;;;;;;;;;5035829;28;20097;-81
2022/01/29 14:34:05;;;;;;;7.28;3.75;;;;;;;;;;5057610;28;20557;-80
2022/01/29 14:36:31;;;;;;;5.57;3.40;;;;;;;;;;5046369;28;20036;-80
2022/01/29 14:38:57;;;;;;;5.93;2.65;;;;;;;;;;5065638;28;20028;-80
2022/01/29 14:41:26;;;;;;;7.53;3.80;;;;;;;;;;5063352;28;20036;-82
2022/01/29 14:43:52;;;;;;;9.20;3.60;;;;;;;;;;5047313;28;20022;-81
2022/01/29 14:46:19;;;;;;;8.57;3.58;;;;;;;;;;5054972;28;20063;-82
2022/01/29 14:48:45;;;;;;;7.65;3.92;;;;;;;;;;5064771;28;20112;-81
2022/01/29 14:51:13;;;;;;;5.63;2.65;;;;;;;;;;5043900;28;20157;-83
2022/01/29 14:53:39;;;;;;;7.00;3.13;;;;;;;;;;5057512;28;20029;-82
2022/01/29 14:56:08;;;;;;;5.90;2.92;;;;;;;;;;5066269;28;20375;-84
2022/01/29 14:58:34;;;;;;;5.53;2.95;;;;;;;;;;5066463;28;20055;-82
2022/01/29 15:01:02;;;;;;;6.90;3.35;;;;;;;;;;5065135;28;20044;-83
2022/01/29 15:03:28;;;;;;;5.00;2.55;;;;;;;;;;5048038;28;20032;-83
2022/01/29 15:05:55;;;;;;;5.90;2.95;;;;;;;;;;5041705;28;20047;-82